createdAt,value
2018-09-02T00:02:02.895Z,100498.00
2018-09-02T00:04:07.570Z,100496.00
2018-09-02T00:06:12.030Z,100491.00
2018-09-02T00:08:16.444Z,100488.00
2018-09-02T00:10:20.949Z,100483.00
2018-09-02T00:12:25.431Z,100482.00
2018-09-02T00:14:29.864Z,100488.00
2018-09-02T00:16:34.240Z,100481.00
2018-09-02T00:18:39.375Z,100482.00
2018-09-02T00:20:43.894Z,100478.00
2018-09-02T00:22:48.302Z,100482.00
2018-09-02T00:24:52.726Z,100479.00
2018-09-02T00:26:57.214Z,100473.00
2018-09-02T00:29:01.846Z,100476.00
2018-09-02T00:31:06.623Z,100486.00
2018-09-02T00:33:11.153Z,100492.00
2018-09-02T00:35:15.641Z,100484.00
2018-09-02T00:37:20.232Z,100477.00
2018-09-02T00:39:24.636Z,100469.00
2018-09-02T00:41:29.085Z,100476.00
2018-09-02T00:43:33.519Z,100474.00
2018-09-02T00:45:37.994Z,100468.00
2018-09-02T00:47:42.413Z,100461.00
2018-09-02T00:49:46.842Z,100476.00
2018-09-02T00:51:51.284Z,100467.00
2018-09-02T00:53:55.703Z,100473.00
2018-09-02T00:56:00.208Z,100465.00
2018-09-02T00:58:05.100Z,100470.00
2018-09-02T01:00:12.061Z,100472.00
2018-09-02T01:02:17.803Z,100468.00
2018-09-02T01:04:24.564Z,100471.00
2018-09-02T01:06:34.169Z,100478.00
2018-09-02T01:08:41.556Z,100473.00
2018-09-02T01:10:47.703Z,100483.00
2018-09-02T01:12:54.881Z,100485.00
2018-09-02T01:15:01.751Z,100485.00
2018-09-02T01:17:09.906Z,100482.00
2018-09-02T01:19:17.724Z,100486.00
2018-09-02T01:21:23.559Z,100492.00
2018-09-02T01:23:31.299Z,100489.00
2018-09-02T01:25:37.058Z,100490.00
2018-09-02T01:27:43.754Z,100493.00
2018-09-02T01:29:50.844Z,100498.00
2018-09-02T01:31:57.226Z,100493.00
2018-09-02T01:34:05.397Z,100494.00
2018-09-02T01:36:13.461Z,100484.00
2018-09-02T01:38:20.337Z,100491.00
2018-09-02T01:40:27.684Z,100483.00
2018-09-02T01:42:34.567Z,100477.00
2018-09-02T01:44:41.941Z,100490.00
2018-09-02T01:46:48.809Z,100484.00
2018-09-02T01:48:55.230Z,100484.00
2018-09-02T01:51:03.767Z,100488.00
2018-09-02T01:53:09.408Z,100486.00
2018-09-02T01:55:16.807Z,100487.00
2018-09-02T01:57:23.684Z,100487.00
2018-09-02T01:59:32.228Z,100489.00
2018-09-02T02:01:36.866Z,100483.00
2018-09-02T02:03:44.070Z,100486.00
2018-09-02T02:05:51.304Z,100486.00
2018-09-02T02:07:59.960Z,100491.00
2018-09-02T02:10:07.139Z,100491.00
2018-09-02T02:12:13.486Z,100491.00
2018-09-02T02:14:20.623Z,100483.00
2018-09-02T02:16:27.983Z,100502.00
2018-09-02T02:18:35.250Z,100491.00
2018-09-02T02:20:41.691Z,100487.00
2018-09-02T02:22:46.110Z,100493.00
2018-09-02T02:24:50.528Z,100488.00
2018-09-02T02:26:54.971Z,100477.00
2018-09-02T02:28:59.427Z,100476.00
2018-09-02T02:31:03.876Z,100471.00
2018-09-02T02:33:08.793Z,100475.00
2018-09-02T02:35:13.190Z,100480.00
2018-09-02T02:37:17.618Z,100465.00
2018-09-02T02:39:22.423Z,100463.00
2018-09-02T02:41:27.271Z,100463.00
2018-09-02T02:43:31.699Z,100461.00
2018-09-02T02:45:39.404Z,100447.00
2018-09-02T02:47:43.846Z,100449.00
2018-09-02T02:49:48.367Z,100448.00
2018-09-02T02:51:52.811Z,100454.00
2018-09-02T02:53:57.251Z,100450.00
2018-09-02T02:56:02.261Z,100448.00
2018-09-02T02:58:06.732Z,100448.00
2018-09-02T03:00:11.211Z,100456.00
2018-09-02T03:02:15.619Z,100440.00
2018-09-02T03:04:20.159Z,100442.00
2018-09-02T03:06:25.146Z,100442.00
2018-09-02T03:08:29.584Z,100441.00
2018-09-02T03:10:34.006Z,100440.00
2018-09-02T03:12:38.729Z,100436.00
2018-09-02T03:14:43.135Z,100435.00
2018-09-02T03:16:47.556Z,100444.00
2018-09-02T03:18:52.011Z,100452.00
2018-09-02T03:20:56.453Z,100438.00
2018-09-02T03:23:00.857Z,100433.00
2018-09-02T03:25:05.501Z,100446.00
2018-09-02T03:27:09.946Z,100429.00
2018-09-02T03:29:14.619Z,100439.00
2018-09-02T03:31:19.048Z,100431.00
2018-09-02T03:33:23.562Z,100435.00
2018-09-02T03:35:28.075Z,100433.00
2018-09-02T03:37:32.526Z,100434.00
2018-09-02T03:39:36.971Z,100433.00
2018-09-02T03:41:41.435Z,100432.00
2018-09-02T03:43:46.045Z,100428.00
2018-09-02T03:45:50.490Z,100427.00
2018-09-02T03:47:54.922Z,100429.00
2018-09-02T03:49:59.350Z,100422.00
2018-09-02T03:52:03.782Z,100414.00
2018-09-02T03:54:08.207Z,100401.00
2018-09-02T03:56:12.619Z,100412.00
2018-09-02T03:58:17.164Z,100419.00
2018-09-02T04:00:21.563Z,100421.00
2018-09-02T04:02:26.238Z,100417.00
2018-09-02T04:04:31.870Z,100419.00
2018-09-02T04:06:36.310Z,100418.00
2018-09-02T04:08:43.442Z,100412.00
2018-09-02T04:10:47.851Z,100414.00
2018-09-02T04:12:54.951Z,100414.00
2018-09-02T04:15:02.164Z,100416.00
2018-09-02T04:17:09.690Z,100416.00
2018-09-02T04:19:14.234Z,100418.00
2018-09-02T04:21:18.770Z,100409.00
2018-09-02T04:23:23.246Z,100409.00
2018-09-02T04:25:27.650Z,100408.00
2018-09-02T04:27:32.152Z,100400.00
2018-09-02T04:29:37.243Z,100407.00
2018-09-02T04:31:41.674Z,100409.00
2018-09-02T04:33:46.192Z,100399.00
2018-09-02T04:35:51.313Z,100399.00
2018-09-02T04:37:55.751Z,100403.00
2018-09-02T04:40:00.175Z,100403.00
2018-09-02T04:42:04.642Z,100396.00
2018-09-02T04:44:09.079Z,100397.00
2018-09-02T04:46:14.715Z,100403.00
2018-09-02T04:48:19.108Z,100409.00
2018-09-02T04:50:23.563Z,100408.00
2018-09-02T04:52:27.990Z,100401.00
2018-09-02T04:54:32.637Z,100406.00
2018-09-02T04:56:36.886Z,100400.00
2018-09-02T04:58:41.314Z,100395.00
2018-09-02T05:00:45.718Z,100404.00
2018-09-02T05:02:50.824Z,100397.00
2018-09-02T05:04:55.423Z,100391.00
2018-09-02T05:06:59.888Z,100397.00
2018-09-02T05:09:04.886Z,100396.00
2018-09-02T05:11:09.332Z,100396.00
2018-09-02T05:13:13.735Z,100398.00
2018-09-02T05:15:18.199Z,100397.00
2018-09-02T05:17:24.024Z,100403.00
2018-09-02T05:19:28.440Z,100396.00
2018-09-02T05:21:32.886Z,100395.00
2018-09-02T05:23:37.510Z,100388.00
2018-09-02T05:25:41.956Z,100396.00
2018-09-02T05:27:46.422Z,100396.00
2018-09-02T05:29:51.787Z,100400.00
2018-09-02T05:31:56.174Z,100389.00
2018-09-02T05:34:00.605Z,100395.00
2018-09-02T05:36:05.191Z,100396.00
2018-09-02T05:38:09.664Z,100397.00
2018-09-02T05:40:14.121Z,100391.00
2018-09-02T05:42:18.598Z,100399.00
2018-09-02T05:44:23.092Z,100401.00
2018-09-02T05:46:27.536Z,100399.00
2018-09-02T05:48:31.963Z,100395.00
2018-09-02T05:50:36.403Z,100404.00
2018-09-02T05:52:40.949Z,100402.00
2018-09-02T05:54:45.388Z,100405.00
2018-09-02T05:56:49.867Z,100409.00
2018-09-02T05:58:54.316Z,100409.00
2018-09-02T06:00:58.737Z,100407.00
2018-09-02T06:03:03.151Z,100403.00
2018-09-02T06:05:07.703Z,100400.00
2018-09-02T06:07:12.139Z,100396.00
2018-09-02T06:09:16.663Z,100399.00
2018-09-02T06:11:21.169Z,100400.00
2018-09-02T06:13:25.576Z,100402.00
2018-09-02T06:15:30.091Z,100395.00
2018-09-02T06:17:34.582Z,100398.00
2018-09-02T06:19:39.022Z,100403.00
2018-09-02T06:21:43.412Z,100405.00
2018-09-02T06:23:47.847Z,100393.00
2018-09-02T06:25:52.304Z,100388.00
2018-09-02T06:27:56.757Z,100391.00
2018-09-02T06:30:01.243Z,100396.00
2018-09-02T06:32:05.651Z,100388.00
2018-09-02T06:34:10.106Z,100389.00
2018-09-02T06:36:14.637Z,100397.00
2018-09-02T06:38:19.070Z,100402.00
2018-09-02T06:40:23.562Z,100398.00
2018-09-02T06:42:28.003Z,100401.00
2018-09-02T06:44:32.462Z,100406.00
2018-09-02T06:46:37.407Z,100393.00
2018-09-02T06:48:41.875Z,100392.00
2018-09-02T06:50:46.532Z,100397.00
2018-09-02T06:52:50.937Z,100383.00
2018-09-02T06:54:55.652Z,100394.00
2018-09-02T06:57:00.215Z,100390.00
2018-09-02T06:59:04.656Z,100393.00
2018-09-02T07:01:09.443Z,100387.00
2018-09-02T07:03:13.925Z,100388.00
2018-09-02T07:05:18.395Z,100385.00
2018-09-02T07:07:23.114Z,100385.00
2018-09-02T07:09:27.900Z,100396.00
2018-09-02T07:11:32.288Z,100389.00
2018-09-02T07:13:37.170Z,100375.00
2018-09-02T07:15:41.690Z,100378.00
2018-09-02T07:17:46.095Z,100376.00
2018-09-02T07:19:50.731Z,100368.00
2018-09-02T07:21:55.236Z,100366.00
2018-09-02T07:23:59.677Z,100361.00
2018-09-02T07:26:04.499Z,100369.00
2018-09-02T07:28:09.156Z,100365.00
2018-09-02T07:30:13.844Z,100367.00
2018-09-02T07:32:18.262Z,100368.00
2018-09-02T07:34:23.176Z,100366.00
2018-09-02T07:36:28.839Z,100365.00
2018-09-02T07:38:33.460Z,100365.00
2018-09-02T07:40:37.983Z,100360.00
2018-09-02T07:42:42.447Z,100363.00
2018-09-02T07:44:46.949Z,100351.00
2018-09-02T07:46:51.720Z,100358.00
2018-09-02T07:48:56.154Z,100357.00
2018-09-02T07:51:01.103Z,100357.00
2018-09-02T07:53:06.047Z,100341.00
2018-09-02T07:55:10.523Z,100352.00
2018-09-02T07:57:15.044Z,100358.00
2018-09-02T07:59:20.148Z,100352.00
2018-09-02T08:01:24.672Z,100339.00
2018-09-02T08:03:29.115Z,100353.00
2018-09-02T08:05:33.576Z,100347.00
2018-09-02T08:07:38.416Z,100341.00
2018-09-02T08:09:43.413Z,100352.00
2018-09-02T08:11:47.965Z,100355.00
2018-09-02T08:13:52.399Z,100363.00
2018-09-02T08:15:56.866Z,100356.00
2018-09-02T08:18:02.910Z,100344.00
2018-09-02T08:20:10.906Z,100352.00
2018-09-02T08:22:15.376Z,100350.00
2018-09-02T08:24:19.787Z,100346.00
2018-09-02T08:26:24.233Z,100349.00
2018-09-02T08:28:28.706Z,100343.00
2018-09-02T08:30:33.148Z,100347.00
2018-09-02T08:32:37.567Z,100332.00
2018-09-02T08:34:41.979Z,100334.00
2018-09-02T08:36:46.502Z,100319.00
2018-09-02T08:38:51.030Z,100334.00
2018-09-02T08:40:55.386Z,100335.00
2018-09-02T08:42:59.800Z,100338.00
2018-09-02T08:45:04.270Z,100322.00
2018-09-02T08:47:08.912Z,100335.00
2018-09-02T08:49:13.340Z,100315.00
2018-09-02T08:51:17.799Z,100319.00
2018-09-02T08:53:22.226Z,100319.00
2018-09-02T08:55:26.655Z,100322.00
2018-09-02T08:57:31.088Z,100330.00
2018-09-02T08:59:35.548Z,100332.00
2018-09-02T09:01:40.266Z,100318.00
2018-09-02T09:03:44.690Z,100308.00
2018-09-02T09:05:49.227Z,100317.00
2018-09-02T09:07:54.473Z,100320.00
2018-09-02T09:09:58.826Z,100318.00
2018-09-02T09:12:03.346Z,100323.00
2018-09-02T09:14:08.103Z,100333.00
2018-09-02T09:16:12.551Z,100320.00
2018-09-02T09:18:16.922Z,100324.00
2018-09-02T09:20:21.386Z,100314.00
2018-09-02T09:22:26.084Z,100302.00
2018-09-02T09:24:30.512Z,100335.00
2018-09-02T09:26:35.297Z,100311.00
2018-09-02T09:28:40.730Z,100313.00
2018-09-02T09:30:45.212Z,100310.00
2018-09-02T09:32:49.654Z,100298.00
2018-09-02T09:34:57.053Z,100305.00
2018-09-02T09:37:01.730Z,100296.00
2018-09-02T09:39:09.475Z,100305.00
2018-09-02T09:41:13.924Z,100308.00
2018-09-02T09:43:18.379Z,100312.00
2018-09-02T09:45:22.817Z,100302.00
2018-09-02T09:47:27.352Z,100293.00
2018-09-02T09:49:31.827Z,100298.00
2018-09-02T09:51:36.287Z,100291.00
2018-09-02T09:53:40.751Z,100294.00
2018-09-02T09:55:45.172Z,100293.00
2018-09-02T09:57:49.650Z,100293.00
2018-09-02T09:59:54.218Z,100291.00
2018-09-02T10:01:58.986Z,100289.00
2018-09-02T10:04:03.523Z,100292.00
2018-09-02T10:06:07.981Z,100289.00
2018-09-02T10:08:12.523Z,100291.00
2018-09-02T10:10:17.036Z,100282.00
2018-09-02T10:12:22.927Z,100288.00
2018-09-02T10:14:27.423Z,100286.00
2018-09-02T10:16:31.910Z,100284.00
2018-09-02T10:18:36.416Z,100278.00
2018-09-02T10:20:40.917Z,100273.00
2018-09-02T10:22:45.366Z,100268.00
2018-09-02T10:24:49.859Z,100269.00
2018-09-02T10:26:54.366Z,100263.00
2018-09-02T10:28:58.837Z,100265.00
2018-09-02T10:31:03.348Z,100264.00
2018-09-02T10:33:07.888Z,100258.00
2018-09-02T10:35:13.457Z,100259.00
2018-09-02T10:37:17.958Z,100251.00
2018-09-02T10:39:22.492Z,100266.00
2018-09-02T10:41:27.213Z,100252.00
2018-09-02T10:43:31.618Z,100260.00
2018-09-02T10:45:36.210Z,100253.00
2018-09-02T10:47:40.840Z,100258.00
2018-09-02T10:49:45.440Z,100255.00
2018-09-02T10:51:49.799Z,100255.00
2018-09-02T10:53:54.314Z,100251.00
2018-09-02T10:55:59.068Z,100258.00
2018-09-02T10:58:03.502Z,100261.00
2018-09-02T11:00:10.119Z,100236.00
2018-09-02T11:02:16.006Z,100245.00
2018-09-02T11:04:20.540Z,100250.00
2018-09-02T11:06:25.050Z,100250.00
2018-09-02T11:08:29.498Z,100250.00
2018-09-02T11:10:33.952Z,100242.00
2018-09-02T11:12:38.406Z,100246.00
2018-09-02T11:14:42.928Z,100234.00
2018-09-02T11:16:47.435Z,100245.00
2018-09-02T11:18:51.883Z,100229.00
2018-09-02T11:20:56.340Z,100237.00
2018-09-02T11:23:00.782Z,100240.00
2018-09-02T11:25:05.327Z,100227.00
2018-09-02T11:27:10.306Z,100232.00
2018-09-02T11:29:15.326Z,100225.00
2018-09-02T11:31:20.014Z,100222.00
2018-09-02T11:33:24.687Z,100228.00
2018-09-02T11:35:29.159Z,100219.00
2018-09-02T11:37:33.686Z,100226.00
2018-09-02T11:39:38.116Z,100221.00
2018-09-02T11:41:42.576Z,100215.00
2018-09-02T11:43:47.267Z,100208.00
2018-09-02T11:45:51.680Z,100206.00
2018-09-02T11:47:58.345Z,100202.00
2018-09-02T11:50:04.015Z,100214.00
2018-09-02T11:52:08.459Z,100208.00
2018-09-02T11:54:12.919Z,100210.00
2018-09-02T11:56:17.367Z,100204.00
2018-09-02T11:58:21.831Z,100204.00
2018-09-02T12:00:26.319Z,100195.00
2018-09-02T12:02:30.736Z,100204.00
2018-09-02T12:04:35.208Z,100199.00
2018-09-02T12:06:39.678Z,100195.00
2018-09-02T12:08:44.184Z,100190.00
2018-09-02T12:10:48.612Z,100181.00
2018-09-02T12:12:53.081Z,100185.00
2018-09-02T12:14:57.755Z,100180.00
2018-09-02T12:17:02.071Z,100188.00
2018-09-02T12:19:06.539Z,100171.00
2018-09-02T12:21:11.030Z,100177.00
2018-09-02T12:23:15.470Z,100172.00
2018-09-02T12:25:19.938Z,100178.00
2018-09-02T12:27:24.410Z,100170.00
2018-09-02T12:29:28.879Z,100163.00
2018-09-02T12:31:33.393Z,100162.00
2018-09-02T12:33:37.790Z,100165.00
2018-09-02T12:35:42.292Z,100169.00
2018-09-02T12:37:46.737Z,100167.00
2018-09-02T12:39:51.271Z,100163.00
2018-09-02T12:41:55.698Z,100164.00
2018-09-02T12:44:00.216Z,100164.00
2018-09-02T12:46:04.770Z,100172.00
2018-09-02T12:48:09.328Z,100157.00
2018-09-02T12:50:13.806Z,100157.00
2018-09-02T12:52:18.354Z,100155.00
2018-09-02T12:54:22.856Z,100147.00
2018-09-02T12:56:27.278Z,100161.00
2018-09-02T12:58:31.715Z,100154.00
2018-09-02T13:00:36.250Z,100144.00
2018-09-02T13:02:40.776Z,100144.00
2018-09-02T13:04:45.222Z,100138.00
2018-09-02T13:06:49.679Z,100134.00
2018-09-02T13:08:54.192Z,100127.00
2018-09-02T13:10:58.694Z,100132.00
2018-09-02T13:13:03.120Z,100137.00
2018-09-02T13:15:07.692Z,100129.00
2018-09-02T13:17:12.175Z,100139.00
2018-09-02T13:19:16.611Z,100135.00
2018-09-02T13:21:21.094Z,100126.00
2018-09-02T13:23:25.522Z,100124.00
2018-09-02T13:25:30.048Z,100119.00
2018-09-02T13:27:34.550Z,100112.00
2018-09-02T13:29:39.771Z,100111.00
2018-09-02T13:31:44.307Z,100119.00
2018-09-02T13:33:48.814Z,100114.00
2018-09-02T13:35:53.223Z,100117.00
2018-09-02T13:37:57.744Z,100114.00
2018-09-02T13:40:02.211Z,100108.00
2018-09-02T13:42:07.007Z,100101.00
2018-09-02T13:44:11.787Z,100111.00
2018-09-02T13:46:16.262Z,100095.00
2018-09-02T13:48:20.827Z,100099.00
2018-09-02T13:50:25.211Z,100092.00
2018-09-02T13:52:29.628Z,100100.00
2018-09-02T13:54:34.387Z,100088.00
2018-09-02T13:56:38.778Z,100099.00
2018-09-02T13:58:43.296Z,100096.00
2018-09-02T14:00:47.815Z,100092.00
2018-09-02T14:02:53.151Z,100091.00
2018-09-02T14:04:57.611Z,100087.00
2018-09-02T14:07:02.227Z,100085.00
2018-09-02T14:09:08.824Z,100095.00
2018-09-02T14:11:13.363Z,100096.00
2018-09-02T14:13:17.782Z,100097.00
2018-09-02T14:15:22.289Z,100093.00
2018-09-02T14:17:26.710Z,100079.00
2018-09-02T14:19:31.164Z,100079.00
2018-09-02T14:21:35.635Z,100080.00
2018-09-02T14:23:40.049Z,100070.00
2018-09-02T14:25:44.513Z,100083.00
2018-09-02T14:27:48.911Z,100073.00
2018-09-02T14:29:53.430Z,100059.00
2018-09-02T14:31:57.854Z,100053.00
2018-09-02T14:34:02.356Z,100043.00
2018-09-02T14:36:07.205Z,100059.00
2018-09-02T14:38:11.647Z,100056.00
2018-09-02T14:40:16.078Z,100052.00
2018-09-02T14:42:20.647Z,100049.00
2018-09-02T14:44:25.080Z,100050.00
2018-09-02T14:46:29.506Z,100049.00
2018-09-02T14:48:33.945Z,100037.00
2018-09-02T14:50:38.373Z,100042.00
2018-09-02T14:52:42.839Z,100042.00
2018-09-02T14:54:47.306Z,100046.00
2018-09-02T14:56:51.820Z,100047.00
2018-09-02T14:58:56.223Z,100045.00
2018-09-02T15:01:00.975Z,100041.00
2018-09-02T15:03:05.431Z,100039.00
2018-09-02T15:05:10.451Z,100034.00
2018-09-02T15:07:14.911Z,100034.00
2018-09-02T15:09:19.390Z,100034.00
2018-09-02T15:11:24.438Z,100038.00
2018-09-02T15:13:28.924Z,100040.00
2018-09-02T15:15:33.388Z,100039.00
2018-09-02T15:17:37.910Z,100042.00
2018-09-02T15:19:42.323Z,100052.00
2018-09-02T15:21:46.850Z,100042.00
2018-09-02T15:23:51.295Z,100049.00
2018-09-02T15:25:55.758Z,100030.00
2018-09-02T15:28:00.208Z,100044.00
2018-09-02T15:30:05.289Z,100042.00
2018-09-02T15:32:09.898Z,100038.00
2018-09-02T15:34:14.312Z,100030.00
2018-09-02T15:36:18.799Z,100035.00
2018-09-02T15:38:23.233Z,100035.00
2018-09-02T15:40:27.722Z,100027.00
2018-09-02T15:42:32.179Z,100031.00
2018-09-02T15:44:36.630Z,100031.00
2018-09-02T15:46:41.137Z,100025.00
2018-09-02T15:48:46.110Z,100037.00
2018-09-02T15:50:50.543Z,100035.00
2018-09-02T15:52:55.070Z,100038.00
2018-09-02T15:54:59.534Z,100047.00
2018-09-02T15:57:04.146Z,100039.00
2018-09-02T15:59:08.587Z,100033.00
2018-09-02T16:01:13.198Z,100047.00
2018-09-02T16:03:17.652Z,100050.00
2018-09-02T16:05:22.442Z,100046.00
2018-09-02T16:07:29.831Z,100046.00
2018-09-02T16:09:34.247Z,100051.00
2018-09-02T16:11:38.798Z,100043.00
2018-09-02T16:13:43.834Z,100040.00
2018-09-02T16:15:48.263Z,100044.00
2018-09-02T16:17:52.709Z,100043.00
2018-09-02T16:19:57.468Z,100044.00
2018-09-02T16:22:01.896Z,100050.00
2018-09-02T16:24:07.081Z,100049.00
2018-09-02T16:26:11.583Z,100062.00
2018-09-02T16:28:16.016Z,100064.00
2018-09-02T16:30:20.715Z,100058.00
2018-09-02T16:32:25.230Z,100056.00
2018-09-02T16:34:29.710Z,100055.00
2018-09-02T16:36:34.284Z,100049.00
2018-09-02T16:38:38.820Z,100050.00
2018-09-02T16:40:43.332Z,100043.00
2018-09-02T16:42:47.920Z,100059.00
2018-09-02T16:44:52.459Z,100047.00
2018-09-02T16:46:56.922Z,100041.00
2018-09-02T16:49:01.428Z,100045.00
2018-09-02T16:51:06.764Z,100041.00
2018-09-02T16:53:11.226Z,100038.00
2018-09-02T16:55:15.650Z,100041.00
2018-09-02T16:57:20.119Z,100039.00
2018-09-02T16:59:24.560Z,100038.00
2018-09-02T17:01:29.019Z,100039.00
2018-09-02T17:03:37.526Z,100030.00
2018-09-02T17:05:41.966Z,100031.00
2018-09-02T17:07:46.418Z,100016.00
2018-09-02T17:09:50.863Z,100026.00
2018-09-02T17:11:55.395Z,100022.00
2018-09-02T17:13:59.875Z,100030.00
2018-09-02T17:16:04.373Z,100023.00
2018-09-02T17:18:09.005Z,100024.00
2018-09-02T17:20:24.173Z,100022.00
2018-09-02T17:22:28.690Z,100024.00
2018-09-02T17:24:33.113Z,100016.00
2018-09-02T17:26:37.549Z,100013.00
2018-09-02T17:28:42.059Z,100010.00
2018-09-02T17:30:46.515Z,100010.00
2018-09-02T17:32:51.109Z,100012.00
2018-09-02T17:34:55.616Z,100012.00
2018-09-02T17:37:00.154Z,100010.00
2018-09-02T17:39:07.562Z,100000.00
2018-09-02T17:41:12.015Z,100001.00
2018-09-02T17:43:16.474Z,100014.00
2018-09-02T17:45:21.162Z,100012.00
2018-09-02T17:47:26.051Z,100005.00
2018-09-02T17:49:30.490Z,100001.00
2018-09-02T17:51:34.947Z,100000.00
2018-09-02T17:53:39.391Z,100006.00
2018-09-02T17:55:43.894Z,100002.00
2018-09-02T17:57:48.543Z,100004.00
2018-09-02T17:59:53.270Z,100001.00
2018-09-02T18:01:57.787Z,100001.00
2018-09-02T18:04:02.186Z,100004.00
2018-09-02T18:06:06.679Z,100004.00
2018-09-02T18:08:11.750Z,100004.00
2018-09-02T18:10:16.319Z,100002.00
2018-09-02T18:12:20.835Z,100008.00
2018-09-02T18:14:25.319Z,100016.00
2018-09-02T18:16:29.877Z,100017.00
2018-09-02T18:18:34.375Z,100015.00
2018-09-02T18:20:38.829Z,100016.00
2018-09-02T18:22:43.330Z,100018.00
2018-09-02T18:24:47.775Z,100029.00
2018-09-02T18:26:52.212Z,100017.00
2018-09-02T18:28:56.662Z,100026.00
2018-09-02T18:31:01.081Z,100027.00
2018-09-02T18:33:05.649Z,100028.00
2018-09-02T18:35:10.098Z,100026.00
2018-09-02T18:37:14.527Z,100026.00
2018-09-02T18:39:19.045Z,100030.00
2018-09-02T18:41:23.433Z,100034.00
2018-09-02T18:43:27.882Z,100037.00
2018-09-02T18:45:32.322Z,100034.00
2018-09-02T18:47:36.739Z,100045.00
2018-09-02T18:49:41.759Z,100042.00
2018-09-02T18:51:46.230Z,100043.00
2018-09-02T18:53:50.667Z,100045.00
2018-09-02T18:55:56.006Z,100038.00
2018-09-02T18:58:00.598Z,100051.00
2018-09-02T19:00:05.270Z,100047.00
2018-09-02T19:02:10.691Z,100041.00
2018-09-02T19:04:15.215Z,100044.00
2018-09-02T19:06:19.639Z,100042.00
2018-09-02T19:08:24.211Z,100035.00
2018-09-02T19:10:28.659Z,100032.00
2018-09-02T19:12:33.169Z,100029.00
2018-09-02T19:14:39.089Z,100030.00
2018-09-02T19:16:43.504Z,100033.00
2018-09-02T19:18:47.979Z,100038.00
2018-09-02T19:20:52.531Z,100033.00
2018-09-02T19:22:56.995Z,100032.00
2018-09-02T19:25:01.457Z,100035.00
2018-09-02T19:27:05.948Z,100033.00
2018-09-02T19:29:10.462Z,100034.00
2018-09-02T19:31:14.892Z,100031.00
2018-09-02T19:33:20.790Z,100034.00
2018-09-02T19:35:25.579Z,100034.00
2018-09-02T19:37:30.196Z,100029.00
2018-09-02T19:39:34.719Z,100038.00
2018-09-02T19:41:41.698Z,100030.00
2018-09-02T19:43:46.495Z,100034.00
2018-09-02T19:45:50.947Z,100025.00
2018-09-02T19:47:57.529Z,100016.00
2018-09-02T19:50:02.036Z,100023.00
2018-09-02T19:52:06.786Z,100009.00
2018-09-02T19:54:11.243Z,100004.00
2018-09-02T19:56:15.998Z,100004.00
2018-09-02T19:58:20.627Z,100012.00
2018-09-02T20:00:25.073Z,100005.00
2018-09-02T20:02:29.490Z,99999.00
2018-09-02T20:04:34.015Z,100006.00
2018-09-02T20:06:38.755Z,99998.00
2018-09-02T20:08:43.536Z,99999.00
2018-09-02T20:10:48.052Z,99999.00
2018-09-02T20:12:52.645Z,99999.00
2018-09-02T20:14:57.064Z,99999.00
2018-09-02T20:17:01.479Z,100005.00
2018-09-02T20:19:06.027Z,99992.00
2018-09-02T20:21:10.468Z,100002.00
2018-09-02T20:23:14.882Z,99995.00
2018-09-02T20:25:19.475Z,99991.00
2018-09-02T20:27:24.491Z,99982.00
2018-09-02T20:29:28.974Z,99987.00
2018-09-02T20:31:33.399Z,99985.00
2018-09-02T20:33:37.817Z,99986.00
2018-09-02T20:35:42.316Z,99987.00
2018-09-02T20:37:46.735Z,99986.00
2018-09-02T20:39:51.147Z,99974.00
2018-09-02T20:41:55.591Z,99973.00
2018-09-02T20:44:00.786Z,99968.00
2018-09-02T20:46:05.424Z,99972.00
2018-09-02T20:48:09.874Z,99982.00
2018-09-02T20:50:14.324Z,99977.00
2018-09-02T20:52:18.743Z,99979.00
2018-09-02T20:54:23.499Z,99979.00
2018-09-02T20:56:27.978Z,99973.00
2018-09-02T20:58:33.243Z,99966.00
2018-09-02T21:00:39.498Z,99968.00
2018-09-02T21:02:45.125Z,99975.00
2018-09-02T21:04:49.610Z,99972.00
2018-09-02T21:06:54.069Z,99974.00
2018-09-02T21:08:58.911Z,99975.00
2018-09-02T21:11:03.428Z,99965.00
2018-09-02T21:13:07.902Z,99965.00
2018-09-02T21:15:12.338Z,99966.00
2018-09-02T21:17:17.223Z,99966.00
2018-09-02T21:19:21.654Z,99954.00
2018-09-02T21:21:26.162Z,99965.00
2018-09-02T21:23:30.676Z,99960.00
2018-09-02T21:25:35.122Z,99965.00
2018-09-02T21:27:39.823Z,99962.00
2018-09-02T21:29:46.692Z,99956.00
2018-09-02T21:31:53.365Z,99970.00
2018-09-02T21:33:58.031Z,99959.00
2018-09-02T21:36:02.519Z,99964.00
2018-09-02T21:38:07.042Z,99965.00
2018-09-02T21:40:11.482Z,99964.00
2018-09-02T21:42:15.960Z,99966.00
2018-09-02T21:44:20.539Z,99969.00
2018-09-02T21:46:25.098Z,99965.00
2018-09-02T21:48:29.586Z,99960.00
2018-09-02T21:50:34.039Z,99949.00
2018-09-02T21:52:38.538Z,99959.00
2018-09-02T21:54:44.469Z,99959.00
2018-09-02T21:56:48.984Z,99957.00
2018-09-02T21:58:53.423Z,99946.00
2018-09-02T22:00:57.860Z,99953.00
2018-09-02T22:03:02.295Z,99947.00
2018-09-02T22:05:09.478Z,99947.00
2018-09-02T22:07:14.307Z,99949.00
2018-09-02T22:09:18.753Z,99943.00
2018-09-02T22:11:24.167Z,99946.00
2018-09-02T22:13:28.711Z,99947.00
2018-09-02T22:15:33.242Z,99948.00
2018-09-02T22:17:37.707Z,99938.00
2018-09-02T22:19:42.414Z,99937.00
2018-09-02T22:21:47.363Z,99931.00
2018-09-02T22:23:51.811Z,99940.00
2018-09-02T22:25:56.326Z,99935.00
2018-09-02T22:28:00.739Z,99939.00
2018-09-02T22:30:05.856Z,99935.00
2018-09-02T22:32:12.859Z,99935.00
2018-09-02T22:34:17.301Z,99924.00
2018-09-02T22:36:21.790Z,99933.00
2018-09-02T22:38:27.415Z,99929.00
2018-09-02T22:40:31.883Z,99919.00
2018-09-02T22:42:36.329Z,99926.00
2018-09-02T22:44:40.883Z,99924.00
2018-09-02T22:46:45.291Z,99931.00
2018-09-02T22:48:49.737Z,99921.00
2018-09-02T22:50:54.162Z,99921.00
2018-09-02T22:53:00.752Z,99922.00
2018-09-02T22:55:05.258Z,99927.00
2018-09-02T22:57:09.704Z,99914.00
2018-09-02T22:59:14.135Z,99920.00
2018-09-02T23:01:18.963Z,99919.00
2018-09-02T23:03:23.484Z,99914.00
2018-09-02T23:05:27.917Z,99920.00
2018-09-02T23:07:32.426Z,99915.00
2018-09-02T23:09:36.874Z,99904.00
2018-09-02T23:11:41.288Z,99904.00
2018-09-02T23:13:45.739Z,99905.00
2018-09-02T23:15:50.174Z,99907.00
2018-09-02T23:17:54.679Z,99899.00
2018-09-02T23:19:59.150Z,99897.00
2018-09-02T23:22:03.667Z,99898.00
2018-09-02T23:24:08.149Z,99898.00
2018-09-02T23:26:12.643Z,99895.00
2018-09-02T23:28:17.069Z,99886.00
2018-09-02T23:30:21.515Z,99882.00
2018-09-02T23:32:25.970Z,99873.00
2018-09-02T23:34:30.430Z,99873.00
2018-09-02T23:36:34.982Z,99868.00
2018-09-02T23:38:39.423Z,99862.00
2018-09-02T23:40:43.883Z,99859.00
2018-09-02T23:42:48.352Z,99866.00
2018-09-02T23:44:52.782Z,99850.00
2018-09-02T23:46:57.222Z,99852.00
2018-09-02T23:49:01.809Z,99841.00
2018-09-02T23:51:06.352Z,99840.00